sensor_id;sensor_type;location;lat;lon;timestamp;temperature;humidity
31733;DHT22;18312;51.486;7.144;2023-11-21T00:00:54;7.20;99.90
31733;DHT22;18312;51.486;7.144;2023-11-21T00:03:21;7.10;99.90
31733;DHT22;18312;51.486;7.144;2023-11-21T00:05:49;7.10;99.90
31733;DHT22;18312;51.486;7.144;2023-11-21T00:08:16;7.00;99.90
31733;DHT22;18312;51.486;7.144;2023-11-21T00:10:43;7.00;99.90
31733;DHT22;18312;51.486;7.144;2023-11-21T00:13:10;7.00;99.90
31733;DHT22;18312;51.486;7.144;2023-11-21T00:15:39;6.90;99.90
31733;DHT22;18312;51.486;7.144;2023-11-21T00:18:07;6.90;99.90
31733;DHT22;18312;51.486;7.144;2023-11-21T00:20:34;7.00;99.90
31733;DHT22;18312;51.486;7.144;2023-11-21T00:23:01;7.00;99.90
31733;DHT22;18312;51.486;7.144;2023-11-21T00:25:28;7.10;99.90
31733;DHT22;18312;51.486;7.144;2023-11-21T00:27:54;7.10;99.90
31733;DHT22;18312;51.486;7.144;2023-11-21T00:30:21;7.20;99.90
31733;DHT22;18312;51.486;7.144;2023-11-21T00:32:49;7.20;99.90
31733;DHT22;18312;51.486;7.144;2023-11-21T00:35:16;7.20;99.90
31733;DHT22;18312;51.486;7.144;2023-11-21T00:37:44;7.20;99.90
31733;DHT22;18312;51.486;7.144;2023-11-21T00:40:12;7.20;99.90
31733;DHT22;18312;51.486;7.144;2023-11-21T00:42:40;7.30;99.90
31733;DHT22;18312;51.486;7.144;2023-11-21T00:45:08;7.40;99.90
31733;DHT22;18312;51.486;7.144;2023-11-21T00:47:35;7.50;99.90
31733;DHT22;18312;51.486;7.144;2023-11-21T00:50:04;7.60;99.90
31733;DHT22;18312;51.486;7.144;2023-11-21T00:52:32;7.60;99.90
31733;DHT22;18312;51.486;7.144;2023-11-21T00:54:59;7.60;99.90
31733;DHT22;18312;51.486;7.144;2023-11-21T00:57:27;7.60;99.90
31733;DHT22;18312;51.486;7.144;2023-11-21T00:59:54;7.70;99.90
31733;DHT22;18312;51.486;7.144;2023-11-21T01:02:21;7.70;99.90
31733;DHT22;18312;51.486;7.144;2023-11-21T01:04:48;7.70;99.90
31733;DHT22;18312;51.486;7.144;2023-11-21T01:07:16;7.80;99.90
31733;DHT22;18312;51.486;7.144;2023-11-21T01:09:45;7.80;99.90
31733;DHT22;18312;51.486;7.144;2023-11-21T01:12:14;7.70;99.90
31733;DHT22;18312;51.486;7.144;2023-11-21T01:14:43;7.60;99.90
31733;DHT22;18312;51.486;7.144;2023-11-21T01:17:10;7.60;99.90
31733;DHT22;18312;51.486;7.144;2023-11-21T01:19:37;7.70;99.90
31733;DHT22;18312;51.486;7.144;2023-11-21T01:22:05;7.70;99.90
31733;DHT22;18312;51.486;7.144;2023-11-21T01:24:33;7.70;99.90
31733;DHT22;18312;51.486;7.144;2023-11-21T01:27:00;7.80;99.90
31733;DHT22;18312;51.486;7.144;2023-11-21T01:29:27;7.70;99.90
31733;DHT22;18312;51.486;7.144;2023-11-21T01:31:54;7.70;99.90
31733;DHT22;18312;51.486;7.144;2023-11-21T01:34:22;7.70;99.90
31733;DHT22;18312;51.486;7.144;2023-11-21T01:36:50;7.60;99.90
31733;DHT22;18312;51.486;7.144;2023-11-21T01:39:17;7.60;99.90
31733;DHT22;18312;51.486;7.144;2023-11-21T01:41:50;7.60;99.90
31733;DHT22;18312;51.486;7.144;2023-11-21T01:44:17;7.70;99.90
31733;DHT22;18312;51.486;7.144;2023-11-21T01:46:45;7.70;99.90
31733;DHT22;18312;51.486;7.144;2023-11-21T01:49:12;7.70;99.90
31733;DHT22;18312;51.486;7.144;2023-11-21T01:51:41;7.70;99.90
31733;DHT22;18312;51.486;7.144;2023-11-21T01:54:09;7.70;99.90
31733;DHT22;18312;51.486;7.144;2023-11-21T01:56:37;7.70;99.90
31733;DHT22;18312;51.486;7.144;2023-11-21T01:59:06;7.70;99.90
31733;DHT22;18312;51.486;7.144;2023-11-21T02:01:33;7.70;99.90
31733;DHT22;18312;51.486;7.144;2023-11-21T02:04:00;7.60;99.90
31733;DHT22;18312;51.486;7.144;2023-11-21T02:06:27;7.60;99.90
31733;DHT22;18312;51.486;7.144;2023-11-21T02:08:56;7.60;99.90
31733;DHT22;18312;51.486;7.144;2023-11-21T02:11:25;7.60;99.90
31733;DHT22;18312;51.486;7.144;2023-11-21T02:13:52;7.60;99.90
31733;DHT22;18312;51.486;7.144;2023-11-21T02:16:21;7.70;99.90
31733;DHT22;18312;51.486;7.144;2023-11-21T02:18:48;7.70;99.90
31733;DHT22;18312;51.486;7.144;2023-11-21T02:21:15;7.70;99.90
31733;DHT22;18312;51.486;7.144;2023-11-21T02:23:43;7.70;99.90
31733;DHT22;18312;51.486;7.144;2023-11-21T02:26:12;7.70;99.90
31733;DHT22;18312;51.486;7.144;2023-11-21T02:28:39;7.70;99.90
31733;DHT22;18312;51.486;7.144;2023-11-21T02:31:06;7.70;99.90
31733;DHT22;18312;51.486;7.144;2023-11-21T02:33:33;7.60;99.90
31733;DHT22;18312;51.486;7.144;2023-11-21T02:36:00;7.60;99.90
31733;DHT22;18312;51.486;7.144;2023-11-21T02:38:27;7.60;99.90
31733;DHT22;18312;51.486;7.144;2023-11-21T02:40:57;7.60;99.90
31733;DHT22;18312;51.486;7.144;2023-11-21T02:43:24;7.60;99.90
31733;DHT22;18312;51.486;7.144;2023-11-21T02:45:51;7.60;99.90
31733;DHT22;18312;51.486;7.144;2023-11-21T02:48:18;7.70;99.90
31733;DHT22;18312;51.486;7.144;2023-11-21T02:50:45;7.70;99.90
31733;DHT22;18312;51.486;7.144;2023-11-21T02:53:12;7.80;99.90
31733;DHT22;18312;51.486;7.144;2023-11-21T02:55:38;7.80;99.90
31733;DHT22;18312;51.486;7.144;2023-11-21T02:58:07;7.70;99.90
31733;DHT22;18312;51.486;7.144;2023-11-21T03:00:34;7.80;99.90
31733;DHT22;18312;51.486;7.144;2023-11-21T03:03:01;7.80;99.90
31733;DHT22;18312;51.486;7.144;2023-11-21T03:05:29;7.80;99.90
31733;DHT22;18312;51.486;7.144;2023-11-21T03:07:56;7.70;99.90
31733;DHT22;18312;51.486;7.144;2023-11-21T03:10:23;7.70;99.90
31733;DHT22;18312;51.486;7.144;2023-11-21T03:12:50;7.80;99.90
31733;DHT22;18312;51.486;7.144;2023-11-21T03:15:19;7.70;99.90
31733;DHT22;18312;51.486;7.144;2023-11-21T03:17:47;7.80;99.90
31733;DHT22;18312;51.486;7.144;2023-11-21T03:20:14;7.80;99.90
31733;DHT22;18312;51.486;7.144;2023-11-21T03:22:41;7.70;99.90
31733;DHT22;18312;51.486;7.144;2023-11-21T03:25:09;7.70;99.90
31733;DHT22;18312;51.486;7.144;2023-11-21T03:27:37;7.80;99.90
31733;DHT22;18312;51.486;7.144;2023-11-21T03:30:07;7.70;99.90
31733;DHT22;18312;51.486;7.144;2023-11-21T03:32:36;7.80;99.90
31733;DHT22;18312;51.486;7.144;2023-11-21T03:35:04;7.80;99.90
31733;DHT22;18312;51.486;7.144;2023-11-21T03:37:31;7.80;99.90
31733;DHT22;18312;51.486;7.144;2023-11-21T03:39:58;7.70;99.90
31733;DHT22;18312;51.486;7.144;2023-11-21T03:42:25;7.70;99.90
31733;DHT22;18312;51.486;7.144;2023-11-21T03:44:52;7.60;99.90
31733;DHT22;18312;51.486;7.144;2023-11-21T03:47:19;7.60;99.90
31733;DHT22;18312;51.486;7.144;2023-11-21T03:49:47;7.60;99.90
31733;DHT22;18312;51.486;7.144;2023-11-21T03:52:14;7.60;99.90
31733;DHT22;18312;51.486;7.144;2023-11-21T03:54:41;7.60;99.90
31733;DHT22;18312;51.486;7.144;2023-11-21T03:57:09;7.60;99.90
31733;DHT22;18312;51.486;7.144;2023-11-21T03:59:36;7.60;99.90
31733;DHT22;18312;51.486;7.144;2023-11-21T04:02:06;7.60;99.90
31733;DHT22;18312;51.486;7.144;2023-11-21T04:04:33;7.70;99.90
31733;DHT22;18312;51.486;7.144;2023-11-21T04:07:02;7.70;99.90
31733;DHT22;18312;51.486;7.144;2023-11-21T04:09:29;7.70;99.90
31733;DHT22;18312;51.486;7.144;2023-11-21T04:11:56;7.70;99.90
31733;DHT22;18312;51.486;7.144;2023-11-21T04:14:23;7.80;99.90
31733;DHT22;18312;51.486;7.144;2023-11-21T04:16:50;7.80;99.90
31733;DHT22;18312;51.486;7.144;2023-11-21T04:19:17;7.70;99.90
31733;DHT22;18312;51.486;7.144;2023-11-21T04:21:44;7.60;99.90
31733;DHT22;18312;51.486;7.144;2023-11-21T04:24:13;7.60;99.90
31733;DHT22;18312;51.486;7.144;2023-11-21T04:26:40;7.60;99.90
31733;DHT22;18312;51.486;7.144;2023-11-21T04:29:07;7.50;99.90
31733;DHT22;18312;51.486;7.144;2023-11-21T04:31:34;7.50;99.90
31733;DHT22;18312;51.486;7.144;2023-11-21T04:34:01;7.50;99.90
31733;DHT22;18312;51.486;7.144;2023-11-21T04:36:29;7.50;99.90
31733;DHT22;18312;51.486;7.144;2023-11-21T04:38:57;7.50;99.90
31733;DHT22;18312;51.486;7.144;2023-11-21T04:41:26;7.40;99.90
31733;DHT22;18312;51.486;7.144;2023-11-21T04:43:53;7.50;99.90
31733;DHT22;18312;51.486;7.144;2023-11-21T04:46:20;7.50;99.90
31733;DHT22;18312;51.486;7.144;2023-11-21T04:48:47;7.50;99.90
31733;DHT22;18312;51.486;7.144;2023-11-21T04:51:14;7.50;99.90
31733;DHT22;18312;51.486;7.144;2023-11-21T04:53:41;7.60;99.90
31733;DHT22;18312;51.486;7.144;2023-11-21T04:56:08;7.60;99.90
31733;DHT22;18312;51.486;7.144;2023-11-21T04:58:37;7.60;99.90
31733;DHT22;18312;51.486;7.144;2023-11-21T05:01:06;7.70;99.90
31733;DHT22;18312;51.486;7.144;2023-11-21T05:03:33;7.60;99.90
31733;DHT22;18312;51.486;7.144;2023-11-21T05:06:01;7.60;99.90
31733;DHT22;18312;51.486;7.144;2023-11-21T05:08:28;7.60;99.90
31733;DHT22;18312;51.486;7.144;2023-11-21T05:10:55;7.60;99.90
31733;DHT22;18312;51.486;7.144;2023-11-21T05:13:22;7.60;99.90
31733;DHT22;18312;51.486;7.144;2023-11-21T05:15:54;7.60;99.90
31733;DHT22;18312;51.486;7.144;2023-11-21T05:18:26;7.50;99.90
31733;DHT22;18312;51.486;7.144;2023-11-21T05:20:55;7.60;99.90
31733;DHT22;18312;51.486;7.144;2023-11-21T05:23:22;7.70;99.90
31733;DHT22;18312;51.486;7.144;2023-11-21T05:25:50;7.70;99.90
31733;DHT22;18312;51.486;7.144;2023-11-21T05:28:17;7.80;99.90
31733;DHT22;18312;51.486;7.144;2023-11-21T05:30:44;7.80;99.90
31733;DHT22;18312;51.486;7.144;2023-11-21T05:33:14;7.80;99.90
31733;DHT22;18312;51.486;7.144;2023-11-21T05:35:41;7.80;99.90
31733;DHT22;18312;51.486;7.144;2023-11-21T05:38:09;7.90;99.90
31733;DHT22;18312;51.486;7.144;2023-11-21T05:40:40;7.90;99.90
31733;DHT22;18312;51.486;7.144;2023-11-21T05:43:11;7.90;99.90
31733;DHT22;18312;51.486;7.144;2023-11-21T05:45:38;7.80;99.90
31733;DHT22;18312;51.486;7.144;2023-11-21T05:48:08;7.70;99.90
31733;DHT22;18312;51.486;7.144;2023-11-21T05:50:36;7.60;99.90
31733;DHT22;18312;51.486;7.144;2023-11-21T05:53:05;7.50;99.90
31733;DHT22;18312;51.486;7.144;2023-11-21T05:55:32;7.40;99.90
31733;DHT22;18312;51.486;7.144;2023-11-21T05:57:59;7.40;99.90
31733;DHT22;18312;51.486;7.144;2023-11-21T06:00:26;7.30;99.90
31733;DHT22;18312;51.486;7.144;2023-11-21T06:02:54;7.30;99.90
31733;DHT22;18312;51.486;7.144;2023-11-21T06:05:24;7.40;99.90
31733;DHT22;18312;51.486;7.144;2023-11-21T06:07:54;7.40;99.90
31733;DHT22;18312;51.486;7.144;2023-11-21T06:10:22;7.40;99.90
31733;DHT22;18312;51.486;7.144;2023-11-21T06:12:50;7.40;99.90
31733;DHT22;18312;51.486;7.144;2023-11-21T06:15:18;7.30;99.90
31733;DHT22;18312;51.486;7.144;2023-11-21T06:17:46;7.40;99.90
31733;DHT22;18312;51.486;7.144;2023-11-21T06:20:18;7.50;99.90
31733;DHT22;18312;51.486;7.144;2023-11-21T06:22:45;7.50;99.90
31733;DHT22;18312;51.486;7.144;2023-11-21T06:25:17;7.60;99.90
31733;DHT22;18312;51.486;7.144;2023-11-21T06:27:47;7.60;99.90
31733;DHT22;18312;51.486;7.144;2023-11-21T06:30:15;7.70;99.90
31733;DHT22;18312;51.486;7.144;2023-11-21T06:32:45;7.70;99.90
31733;DHT22;18312;51.486;7.144;2023-11-21T06:35:13;7.70;99.90
31733;DHT22;18312;51.486;7.144;2023-11-21T06:37:41;7.80;99.90
31733;DHT22;18312;51.486;7.144;2023-11-21T06:40:13;7.80;99.90
31733;DHT22;18312;51.486;7.144;2023-11-21T06:42:41;7.90;99.90
31733;DHT22;18312;51.486;7.144;2023-11-21T06:45:12;8.00;99.90
31733;DHT22;18312;51.486;7.144;2023-11-21T06:47:40;7.90;99.90
31733;DHT22;18312;51.486;7.144;2023-11-21T06:50:08;7.90;99.90
31733;DHT22;18312;51.486;7.144;2023-11-21T06:52:36;7.90;99.90
31733;DHT22;18312;51.486;7.144;2023-11-21T06:55:03;7.90;99.90
31733;DHT22;18312;51.486;7.144;2023-11-21T06:57:31;7.90;99.90
31733;DHT22;18312;51.486;7.144;2023-11-21T07:00:00;8.00;99.90
31733;DHT22;18312;51.486;7.144;2023-11-21T07:02:27;7.90;99.90
31733;DHT22;18312;51.486;7.144;2023-11-21T07:04:54;7.90;99.90
31733;DHT22;18312;51.486;7.144;2023-11-21T07:07:21;8.00;99.90
31733;DHT22;18312;51.486;7.144;2023-11-21T07:09:48;8.00;99.90
31733;DHT22;18312;51.486;7.144;2023-11-21T07:12:15;8.00;99.90
31733;DHT22;18312;51.486;7.144;2023-11-21T07:14:43;8.10;99.90
31733;DHT22;18312;51.486;7.144;2023-11-21T07:17:12;8.10;99.90
31733;DHT22;18312;51.486;7.144;2023-11-21T07:19:39;8.10;99.90
31733;DHT22;18312;51.486;7.144;2023-11-21T07:22:07;8.20;99.90
31733;DHT22;18312;51.486;7.144;2023-11-21T07:24:34;8.20;99.90
31733;DHT22;18312;51.486;7.144;2023-11-21T07:27:02;8.20;99.90
31733;DHT22;18312;51.486;7.144;2023-11-21T07:29:30;8.20;99.90
31733;DHT22;18312;51.486;7.144;2023-11-21T07:31:57;8.20;99.90
31733;DHT22;18312;51.486;7.144;2023-11-21T07:34:25;8.20;99.90
31733;DHT22;18312;51.486;7.144;2023-11-21T07:36:52;8.20;99.90
31733;DHT22;18312;51.486;7.144;2023-11-21T07:39:19;8.20;99.90
31733;DHT22;18312;51.486;7.144;2023-11-21T07:41:46;8.20;99.90
31733;DHT22;18312;51.486;7.144;2023-11-21T07:44:15;8.20;99.90
31733;DHT22;18312;51.486;7.144;2023-11-21T07:46:43;8.10;99.90
31733;DHT22;18312;51.486;7.144;2023-11-21T07:49:11;8.20;99.90
31733;DHT22;18312;51.486;7.144;2023-11-21T07:51:42;8.20;99.90
31733;DHT22;18312;51.486;7.144;2023-11-21T07:54:09;8.30;99.90
31733;DHT22;18312;51.486;7.144;2023-11-21T07:56:36;8.40;99.90
31733;DHT22;18312;51.486;7.144;2023-11-21T07:59:02;8.50;99.90
31733;DHT22;18312;51.486;7.144;2023-11-21T08:01:31;8.40;99.90
31733;DHT22;18312;51.486;7.144;2023-11-21T08:03:58;8.50;99.90
31733;DHT22;18312;51.486;7.144;2023-11-21T08:06:28;8.60;99.90
31733;DHT22;18312;51.486;7.144;2023-11-21T08:08:59;8.70;99.90
31733;DHT22;18312;51.486;7.144;2023-11-21T08:11:26;8.80;99.90
31733;DHT22;18312;51.486;7.144;2023-11-21T08:13:54;8.80;99.90
31733;DHT22;18312;51.486;7.144;2023-11-21T08:16:22;8.90;99.90
31733;DHT22;18312;51.486;7.144;2023-11-21T08:18:49;8.90;99.90
31733;DHT22;18312;51.486;7.144;2023-11-21T08:21:16;9.10;99.90
31733;DHT22;18312;51.486;7.144;2023-11-21T08:23:44;9.10;99.90
31733;DHT22;18312;51.486;7.144;2023-11-21T08:26:16;9.10;99.90
31733;DHT22;18312;51.486;7.144;2023-11-21T08:28:43;9.10;99.90
31733;DHT22;18312;51.486;7.144;2023-11-21T08:31:10;9.10;99.90
31733;DHT22;18312;51.486;7.144;2023-11-21T08:33:37;9.10;99.90
31733;DHT22;18312;51.486;7.144;2023-11-21T08:36:07;9.10;99.90
31733;DHT22;18312;51.486;7.144;2023-11-21T08:38:34;9.10;99.90
31733;DHT22;18312;51.486;7.144;2023-11-21T08:41:04;9.00;99.90
31733;DHT22;18312;51.486;7.144;2023-11-21T08:43:34;9.00;99.90
31733;DHT22;18312;51.486;7.144;2023-11-21T08:46:01;9.00;99.90
31733;DHT22;18312;51.486;7.144;2023-11-21T08:48:28;9.00;99.90
31733;DHT22;18312;51.486;7.144;2023-11-21T08:50:55;9.10;99.90
31733;DHT22;18312;51.486;7.144;2023-11-21T08:53:23;9.10;99.90
31733;DHT22;18312;51.486;7.144;2023-11-21T08:55:51;9.20;99.90
31733;DHT22;18312;51.486;7.144;2023-11-21T08:58:19;9.20;99.90
31733;DHT22;18312;51.486;7.144;2023-11-21T09:00:48;9.30;99.90
31733;DHT22;18312;51.486;7.144;2023-11-21T09:03:15;9.30;99.90
31733;DHT22;18312;51.486;7.144;2023-11-21T09:05:44;9.40;99.90
31733;DHT22;18312;51.486;7.144;2023-11-21T09:08:11;9.50;99.90
31733;DHT22;18312;51.486;7.144;2023-11-21T09:10:38;9.50;99.90
31733;DHT22;18312;51.486;7.144;2023-11-21T09:13:05;9.60;99.90
31733;DHT22;18312;51.486;7.144;2023-11-21T09:15:35;9.60;99.90
31733;DHT22;18312;51.486;7.144;2023-11-21T09:18:04;9.70;99.90
31733;DHT22;18312;51.486;7.144;2023-11-21T09:20:41;9.70;99.90
31733;DHT22;18312;51.486;7.144;2023-11-21T09:23:12;9.70;99.90
31733;DHT22;18312;51.486;7.144;2023-11-21T09:25:41;9.70;99.90
31733;DHT22;18312;51.486;7.144;2023-11-21T09:28:11;9.80;99.90
31733;DHT22;18312;51.486;7.144;2023-11-21T09:30:38;9.80;99.90
31733;DHT22;18312;51.486;7.144;2023-11-21T09:33:07;9.90;99.90
31733;DHT22;18312;51.486;7.144;2023-11-21T09:35:36;9.80;99.90
31733;DHT22;18312;51.486;7.144;2023-11-21T09:38:03;9.80;99.90
31733;DHT22;18312;51.486;7.144;2023-11-21T09:40:31;9.80;99.90
31733;DHT22;18312;51.486;7.144;2023-11-21T09:42:58;9.80;99.90
31733;DHT22;18312;51.486;7.144;2023-11-21T09:45:26;9.90;99.90
31733;DHT22;18312;51.486;7.144;2023-11-21T09:47:54;9.90;99.90
31733;DHT22;18312;51.486;7.144;2023-11-21T09:50:23;9.90;99.90
31733;DHT22;18312;51.486;7.144;2023-11-21T09:52:56;9.80;99.90
31733;DHT22;18312;51.486;7.144;2023-11-21T09:55:27;9.90;99.90
31733;DHT22;18312;51.486;7.144;2023-11-21T09:57:56;9.90;99.90
31733;DHT22;18312;51.486;7.144;2023-11-21T10:00:23;10.00;99.90
31733;DHT22;18312;51.486;7.144;2023-11-21T10:02:50;10.20;99.90
31733;DHT22;18312;51.486;7.144;2023-11-21T10:05:18;10.20;99.90
31733;DHT22;18312;51.486;7.144;2023-11-21T10:07:49;10.30;99.90
31733;DHT22;18312;51.486;7.144;2023-11-21T10:10:18;10.20;99.90
31733;DHT22;18312;51.486;7.144;2023-11-21T10:12:49;10.20;99.90
31733;DHT22;18312;51.486;7.144;2023-11-21T10:15:16;10.20;99.90
31733;DHT22;18312;51.486;7.144;2023-11-21T10:17:44;10.30;99.90
31733;DHT22;18312;51.486;7.144;2023-11-21T10:20:13;10.50;99.90
31733;DHT22;18312;51.486;7.144;2023-11-21T10:22:41;10.60;99.90
31733;DHT22;18312;51.486;7.144;2023-11-21T10:25:10;10.70;99.90
31733;DHT22;18312;51.486;7.144;2023-11-21T10:27:40;10.80;99.90
31733;DHT22;18312;51.486;7.144;2023-11-21T10:30:09;10.90;99.90
31733;DHT22;18312;51.486;7.144;2023-11-21T10:32:37;10.90;99.90
31733;DHT22;18312;51.486;7.144;2023-11-21T10:35:06;10.70;99.90
31733;DHT22;18312;51.486;7.144;2023-11-21T10:37:35;10.60;99.90
31733;DHT22;18312;51.486;7.144;2023-11-21T10:40:05;10.70;99.90
31733;DHT22;18312;51.486;7.144;2023-11-21T10:42:34;10.90;99.90
31733;DHT22;18312;51.486;7.144;2023-11-21T10:45:00;11.10;99.90
31733;DHT22;18312;51.486;7.144;2023-11-21T10:47:28;11.10;99.90
31733;DHT22;18312;51.486;7.144;2023-11-21T10:49:55;11.10;99.90
31733;DHT22;18312;51.486;7.144;2023-11-21T10:52:27;11.10;99.90
31733;DHT22;18312;51.486;7.144;2023-11-21T10:54:53;11.20;99.90
31733;DHT22;18312;51.486;7.144;2023-11-21T10:57:21;11.00;99.90
31733;DHT22;18312;51.486;7.144;2023-11-21T10:59:50;11.00;99.90
31733;DHT22;18312;51.486;7.144;2023-11-21T11:02:25;11.00;99.90
31733;DHT22;18312;51.486;7.144;2023-11-21T11:04:54;10.80;99.90
31733;DHT22;18312;51.486;7.144;2023-11-21T11:07:24;11.00;99.90
31733;DHT22;18312;51.486;7.144;2023-11-21T11:09:52;11.20;99.90
31733;DHT22;18312;51.486;7.144;2023-11-21T11:12:19;11.20;99.90
31733;DHT22;18312;51.486;7.144;2023-11-21T11:14:46;10.90;99.90
31733;DHT22;18312;51.486;7.144;2023-11-21T11:17:15;11.20;99.90
31733;DHT22;18312;51.486;7.144;2023-11-21T11:19:42;11.30;99.90
31733;DHT22;18312;51.486;7.144;2023-11-21T11:22:19;11.30;99.90
31733;DHT22;18312;51.486;7.144;2023-11-21T11:25:06;11.30;99.90
31733;DHT22;18312;51.486;7.144;2023-11-21T11:27:47;11.30;99.90
31733;DHT22;18312;51.486;7.144;2023-11-21T11:30:27;11.40;99.90
31733;DHT22;18312;51.486;7.144;2023-11-21T11:33:06;11.60;99.90
31733;DHT22;18312;51.486;7.144;2023-11-21T11:35:41;11.60;99.90
31733;DHT22;18312;51.486;7.144;2023-11-21T11:38:09;11.50;99.90
31733;DHT22;18312;51.486;7.144;2023-11-21T11:40:39;11.40;99.90
31733;DHT22;18312;51.486;7.144;2023-11-21T11:43:07;11.30;99.90
31733;DHT22;18312;51.486;7.144;2023-11-21T11:45:34;11.50;99.90
31733;DHT22;18312;51.486;7.144;2023-11-21T11:48:10;11.20;99.90
31733;DHT22;18312;51.486;7.144;2023-11-21T11:50:42;11.20;99.90
31733;DHT22;18312;51.486;7.144;2023-11-21T11:53:33;10.90;99.90
31733;DHT22;18312;51.486;7.144;2023-11-21T11:56:20;10.70;99.90
31733;DHT22;18312;51.486;7.144;2023-11-21T11:58:48;10.50;99.90
31733;DHT22;18312;51.486;7.144;2023-11-21T12:01:17;10.80;99.90
31733;DHT22;18312;51.486;7.144;2023-11-21T12:04:24;10.80;99.90
31733;DHT22;18312;51.486;7.144;2023-11-21T12:06:57;10.80;99.90
31733;DHT22;18312;51.486;7.144;2023-11-21T12:09:26;10.70;99.90
31733;DHT22;18312;51.486;7.144;2023-11-21T12:11:53;10.60;99.90
31733;DHT22;18312;51.486;7.144;2023-11-21T12:14:22;10.30;99.90
31733;DHT22;18312;51.486;7.144;2023-11-21T12:16:49;10.20;99.90
31733;DHT22;18312;51.486;7.144;2023-11-21T12:19:19;10.00;99.90
31733;DHT22;18312;51.486;7.144;2023-11-21T12:21:46;10.00;99.90
31733;DHT22;18312;51.486;7.144;2023-11-21T12:24:14;9.80;99.90
31733;DHT22;18312;51.486;7.144;2023-11-21T12:26:42;9.80;99.90
31733;DHT22;18312;51.486;7.144;2023-11-21T12:29:09;9.80;99.90
31733;DHT22;18312;51.486;7.144;2023-11-21T12:31:36;9.80;99.90
31733;DHT22;18312;51.486;7.144;2023-11-21T12:34:03;9.70;99.90
31733;DHT22;18312;51.486;7.144;2023-11-21T12:36:34;9.80;99.90
31733;DHT22;18312;51.486;7.144;2023-11-21T12:39:02;9.90;99.90
31733;DHT22;18312;51.486;7.144;2023-11-21T12:41:29;9.80;99.90
31733;DHT22;18312;51.486;7.144;2023-11-21T12:43:56;9.90;99.90
31733;DHT22;18312;51.486;7.144;2023-11-21T12:46:24;10.00;99.90
31733;DHT22;18312;51.486;7.144;2023-11-21T12:48:54;9.80;99.90
31733;DHT22;18312;51.486;7.144;2023-11-21T12:51:22;9.90;99.90
31733;DHT22;18312;51.486;7.144;2023-11-21T12:53:51;10.00;99.90
31733;DHT22;18312;51.486;7.144;2023-11-21T12:56:18;10.00;99.90
31733;DHT22;18312;51.486;7.144;2023-11-21T12:58:48;10.10;99.90
31733;DHT22;18312;51.486;7.144;2023-11-21T13:01:18;10.00;99.90
31733;DHT22;18312;51.486;7.144;2023-11-21T13:03:47;10.00;99.90
31733;DHT22;18312;51.486;7.144;2023-11-21T13:06:17;9.90;99.90
31733;DHT22;18312;51.486;7.144;2023-11-21T13:08:45;9.90;99.90
31733;DHT22;18312;51.486;7.144;2023-11-21T13:11:13;10.10;99.90
31733;DHT22;18312;51.486;7.144;2023-11-21T13:13:41;9.90;99.90
31733;DHT22;18312;51.486;7.144;2023-11-21T13:16:09;9.90;99.90
31733;DHT22;18312;51.486;7.144;2023-11-21T13:18:36;9.90;99.90
31733;DHT22;18312;51.486;7.144;2023-11-21T13:21:06;9.90;99.90
31733;DHT22;18312;51.486;7.144;2023-11-21T13:23:36;9.80;99.90
31733;DHT22;18312;51.486;7.144;2023-11-21T13:26:04;9.80;99.90
31733;DHT22;18312;51.486;7.144;2023-11-21T13:28:32;9.70;99.90
31733;DHT22;18312;51.486;7.144;2023-11-21T13:31:00;9.80;99.90
31733;DHT22;18312;51.486;7.144;2023-11-21T13:33:34;9.90;99.90
31733;DHT22;18312;51.486;7.144;2023-11-21T13:36:04;9.90;99.90
31733;DHT22;18312;51.486;7.144;2023-11-21T13:38:33;9.90;99.90
31733;DHT22;18312;51.486;7.144;2023-11-21T13:41:01;9.90;99.90
31733;DHT22;18312;51.486;7.144;2023-11-21T13:43:34;9.70;99.90
31733;DHT22;18312;51.486;7.144;2023-11-21T13:46:02;9.70;99.90
31733;DHT22;18312;51.486;7.144;2023-11-21T13:48:39;9.60;99.90
31733;DHT22;18312;51.486;7.144;2023-11-21T13:51:08;9.60;99.90
31733;DHT22;18312;51.486;7.144;2023-11-21T13:53:42;9.60;99.90
31733;DHT22;18312;51.486;7.144;2023-11-21T13:56:11;9.60;99.90
31733;DHT22;18312;51.486;7.144;2023-11-21T13:58:43;9.60;99.90
31733;DHT22;18312;51.486;7.144;2023-11-21T14:01:13;9.60;99.90
31733;DHT22;18312;51.486;7.144;2023-11-21T14:03:58;9.50;99.90
31733;DHT22;18312;51.486;7.144;2023-11-21T14:06:33;9.60;99.90
31733;DHT22;18312;51.486;7.144;2023-11-21T14:09:07;9.50;99.90
31733;DHT22;18312;51.486;7.144;2023-11-21T14:11:37;9.60;99.90
31733;DHT22;18312;51.486;7.144;2023-11-21T14:14:11;9.60;99.90
31733;DHT22;18312;51.486;7.144;2023-11-21T14:16:39;9.50;99.90
31733;DHT22;18312;51.486;7.144;2023-11-21T14:19:07;9.40;99.90
31733;DHT22;18312;51.486;7.144;2023-11-21T14:21:41;9.40;99.90
31733;DHT22;18312;51.486;7.144;2023-11-21T14:24:10;9.40;99.90
31733;DHT22;18312;51.486;7.144;2023-11-21T14:26:39;9.40;99.90
31733;DHT22;18312;51.486;7.144;2023-11-21T14:29:06;9.40;99.90
31733;DHT22;18312;51.486;7.144;2023-11-21T14:31:36;9.30;99.90
31733;DHT22;18312;51.486;7.144;2023-11-21T14:34:03;9.30;99.90
31733;DHT22;18312;51.486;7.144;2023-11-21T14:36:31;9.30;99.90
31733;DHT22;18312;51.486;7.144;2023-11-21T14:38:58;9.30;99.90
31733;DHT22;18312;51.486;7.144;2023-11-21T14:41:25;9.30;99.90
31733;DHT22;18312;51.486;7.144;2023-11-21T14:43:53;9.30;99.90
31733;DHT22;18312;51.486;7.144;2023-11-21T14:46:21;9.30;99.90
31733;DHT22;18312;51.486;7.144;2023-11-21T14:48:49;9.40;99.90
31733;DHT22;18312;51.486;7.144;2023-11-21T14:51:24;9.40;99.90
31733;DHT22;18312;51.486;7.144;2023-11-21T14:53:56;9.40;99.90
31733;DHT22;18312;51.486;7.144;2023-11-21T14:56:26;9.30;99.90
31733;DHT22;18312;51.486;7.144;2023-11-21T14:58:58;9.30;99.90
31733;DHT22;18312;51.486;7.144;2023-11-21T15:01:31;9.30;99.90
31733;DHT22;18312;51.486;7.144;2023-11-21T15:04:12;9.20;99.90
31733;DHT22;18312;51.486;7.144;2023-11-21T15:06:49;9.20;99.90
31733;DHT22;18312;51.486;7.144;2023-11-21T15:09:19;9.20;99.90
31733;DHT22;18312;51.486;7.144;2023-11-21T15:12:02;9.20;99.90
31733;DHT22;18312;51.486;7.144;2023-11-21T15:14:41;9.10;99.90
31733;DHT22;18312;51.486;7.144;2023-11-21T15:17:09;9.10;99.90
31733;DHT22;18312;51.486;7.144;2023-11-21T15:19:38;9.10;99.90
31733;DHT22;18312;51.486;7.144;2023-11-21T15:22:06;9.00;99.90
31733;DHT22;18312;51.486;7.144;2023-11-21T15:24:33;9.00;99.90
31733;DHT22;18312;51.486;7.144;2023-11-21T15:27:00;9.00;99.90
31733;DHT22;18312;51.486;7.144;2023-11-21T15:29:29;9.00;99.90
31733;DHT22;18312;51.486;7.144;2023-11-21T15:31:56;9.00;99.90
31733;DHT22;18312;51.486;7.144;2023-11-21T15:34:29;8.90;99.90
31733;DHT22;18312;51.486;7.144;2023-11-21T15:36:57;8.90;99.90
31733;DHT22;18312;51.486;7.144;2023-11-21T15:42:56;8.90;99.90
31733;DHT22;18312;51.486;7.144;2023-11-21T16:13:55;8.20;99.90
31733;DHT22;18312;51.486;7.144;2023-11-21T16:16:23;8.10;99.90
31733;DHT22;18312;51.486;7.144;2023-11-21T16:19:00;8.00;99.90
31733;DHT22;18312;51.486;7.144;2023-11-21T16:21:43;7.90;99.90
31733;DHT22;18312;51.486;7.144;2023-11-21T16:24:16;7.80;99.90